Portada
METAR-TAF:

METAR-TAF

Aeroports :

West Plains Municipal Airport

West Plains, Missouri, Estats Units d'Amèrica

latitud: 36-52-45N, longitud: 091-54-18W, altitud: 374 m

Observació

L'informe es va fer fa 46 minuts, a les 12:53 UTC
Vent 8 kt del Nord-Oest amb ràfegues de 14 kt
Temperatura 8°C
Humitat 76%
Pressió 1011 hPa
Visibilitat: 16.1 km
Cel clar

METAR: KUNO 191253Z AUTO 31008G14KT 10SM CLR 08/04 A2985 RMK AO2 SLP108 T00780039

Hora: 07:39 (13:39 UTC)


TAF: manca

Observacions i pronòstics meteorològics de més de 4000 aeroports (METAR i TAF).

Les estacions disponibles són els punts grocs i vermells al mapa.

Posi el ratolí al punt desitjat per veure el nom de l'estació.

Feu clic per veure les observacions i els pronòstics meteorològics.

Per canviar el mapa: feu clic els botons verds amb una creu de color negre per apropar; al botó verd amb un guió per allunyar la imatge; o en les fletxes verdes per a mapes adjacents.


METAR-TAF: